Time;durP1;ratioP1;P1;durP2;ratioP2;P2;SDS_P1;SDS_P2;PMS_P1;PMS_P2;Temp;Humidity;BMP_temperature;BMP_pressure;BME280_temperature;BME280_humidity;BME280_pressure;Samples;Min_cycle;Max_cycle;Signal;HPM_P1;HPM_P2
2023/03/26 00:00:42;;;;;;;0.93;0.60;;;;;;;;;;10463229;28;20063;-76
2023/03/26 00:05:46;;;;;;;1.48;0.68;;;;;;;;;;10473237;28;20396;-75
2023/03/26 00:10:50;;;;;;;2.47;0.77;;;;;;;;;;10466253;28;20028;-75
2023/03/26 00:15:54;;;;;;;0.50;0.40;;;;;;;;;;10472205;28;20486;-75
2023/03/26 00:20:58;;;;;;;2.55;1.05;;;;;;;;;;10470267;28;20072;-76
2023/03/26 00:26:01;;;;;;;3.03;0.83;;;;;;;;;;10443306;28;20176;-75
2023/03/26 00:31:07;;;;;;;3.78;0.80;;;;;;;;;;10448189;28;20041;-75
2023/03/26 00:36:13;;;;;;;3.28;0.90;;;;;;;;;;10445936;28;20099;-76
2023/03/26 00:41:21;;;;;;;2.45;1.08;;;;;;;;;;10443769;28;20552;-75
2023/03/26 00:46:27;;;;;;;3.10;0.55;;;;;;;;;;10447495;28;20095;-75
2023/03/26 00:51:30;;;;;;;1.77;0.52;;;;;;;;;;10437037;28;20132;-75
2023/03/26 00:56:33;;;;;;;1.33;0.52;;;;;;;;;;10435011;28;20079;-74
2023/03/26 01:01:37;;;;;;;3.10;0.88;;;;;;;;;;10450202;28;20082;-75
2023/03/26 01:06:40;;;;;;;;;;;;;;;;;;10436310;28;20119;-75
2023/03/26 01:11:44;;;;;;;1.45;0.57;;;;;;;;;;10436582;28;20363;-77
2023/03/26 01:16:50;;;;;;;2.42;0.60;;;;;;;;;;10436046;28;20039;-75
2023/03/26 01:21:53;;;;;;;2.35;0.90;;;;;;;;;;10435795;28;20446;-75
2023/03/26 01:27:23;;;;;;;1.03;0.50;;;;;;;;;;10437493;28;20041;-76
2023/03/26 01:32:42;;;;;;;3.92;0.93;;;;;;;;;;10416509;28;20148;-75
2023/03/26 01:37:51;;;;;;;3.03;1.00;;;;;;;;;;10431848;28;20033;-74
2023/03/26 01:42:57;;;;;;;2.75;0.75;;;;;;;;;;10432688;28;20379;-75
2023/03/26 01:48:02;;;;;;;2.25;0.90;;;;;;;;;;10436510;28;20072;-77
2023/03/26 01:53:06;;;;;;;4.60;1.17;;;;;;;;;;10430133;28;20057;-79
2023/03/26 01:58:11;;;;;;;1.57;0.40;;;;;;;;;;10436936;28;20069;-77
2023/03/26 02:03:22;;;;;;;0.55;0.40;;;;;;;;;;10434374;28;20041;-76
2023/03/26 02:08:34;;;;;;;6.53;0.70;;;;;;;;;;10431811;28;20037;-76
2023/03/26 02:13:37;;;;;;;2.28;0.60;;;;;;;;;;10434094;28;20140;-76
2023/03/26 02:18:50;;;;;;;2.38;0.80;;;;;;;;;;10435555;28;20461;-76
2023/03/26 02:23:56;;;;;;;2.63;0.52;;;;;;;;;;10431302;28;20041;-77
2023/03/26 02:29:03;;;;;;;1.63;0.60;;;;;;;;;;10436061;28;20048;-76
2023/03/26 02:34:07;;;;;;;3.35;0.77;;;;;;;;;;10436877;28;20415;-74
2023/03/26 02:39:13;;;;;;;2.85;0.77;;;;;;;;;;10433606;28;20048;-75
2023/03/26 02:44:15;;;;;;;2.88;0.77;;;;;;;;;;10431837;28;20090;-75
2023/03/26 02:49:20;;;;;;;1.00;0.40;;;;;;;;;;10434371;28;20047;-74
2023/03/26 02:54:23;;;;;;;4.93;0.55;;;;;;;;;;10436122;28;20037;-73
2023/03/26 02:59:26;;;;;;;4.75;0.98;;;;;;;;;;10431624;28;20467;-75
2023/03/26 03:04:30;;;;;;;2.03;0.57;;;;;;;;;;10428728;28;20408;-75
2023/03/26 03:09:33;;;;;;;;;;;;;;;;;;10436070;28;20052;-76
2023/03/26 03:14:36;;;;;;;3.10;0.77;;;;;;;;;;10434015;28;19920;-75
2023/03/26 03:19:42;;;;;;;7.57;1.23;;;;;;;;;;10432696;28;20467;-76
2023/03/26 03:24:45;;;;;;;1.02;0.35;;;;;;;;;;10435146;28;20037;-75
2023/03/26 03:29:48;;;;;;;2.35;0.77;;;;;;;;;;10445950;28;20041;-75
2023/03/26 03:34:52;;;;;;;5.72;0.80;;;;;;;;;;10438459;28;20064;-76
2023/03/26 03:39:55;;;;;;;2.22;0.80;;;;;;;;;;10426325;28;20048;-76
2023/03/26 03:44:57;;;;;;;5.78;0.90;;;;;;;;;;10430639;28;20037;-76
2023/03/26 03:50:02;;;;;;;3.85;0.80;;;;;;;;;;10430958;28;20049;-77
2023/03/26 03:55:09;;;;;;;4.57;0.60;;;;;;;;;;10430883;28;20061;-76
2023/03/26 04:00:13;;;;;;;1.73;0.85;;;;;;;;;;10433745;28;20386;-78
2023/03/26 04:05:17;;;;;;;1.75;0.82;;;;;;;;;;10445689;28;20398;-77
2023/03/26 04:10:20;;;;;;;1.38;0.70;;;;;;;;;;10442972;28;20037;-76
2023/03/26 04:15:24;;;;;;;5.75;0.98;;;;;;;;;;10445833;28;20029;-76
2023/03/26 04:20:28;;;;;;;3.80;0.80;;;;;;;;;;10444469;28;20129;-76
2023/03/26 04:25:32;;;;;;;6.72;1.20;;;;;;;;;;10442444;28;20041;-75
2023/03/26 04:30:34;;;;;;;2.17;0.93;;;;;;;;;;10439709;28;20049;-75
2023/03/26 04:35:40;;;;;;;5.47;0.88;;;;;;;;;;10449919;28;20771;-77
2023/03/26 04:40:46;;;;;;;2.75;1.05;;;;;;;;;;10439217;28;20137;-75
2023/03/26 04:45:48;;;;;;;6.05;1.23;;;;;;;;;;10441729;28;20065;-75
2023/03/26 04:50:52;;;;;;;5.65;1.20;;;;;;;;;;10439619;28;20048;-76
2023/03/26 04:55:55;;;;;;;;;;;;;;;;;;10442834;28;20036;-75
2023/03/26 05:00:59;;;;;;;4.80;0.70;;;;;;;;;;10442652;28;19959;-75
2023/03/26 05:06:13;;;;;;;3.72;0.90;;;;;;;;;;10441895;28;20041;-76
2023/03/26 05:11:16;;;;;;;1.40;0.90;;;;;;;;;;10438545;28;20494;-76
2023/03/26 05:16:20;;;;;;;4.57;0.77;;;;;;;;;;10445453;28;20044;-74
2023/03/26 05:21:25;;;;;;;1.35;0.45;;;;;;;;;;10441801;28;20295;-75
2023/03/26 05:26:29;;;;;;;1.83;0.68;;;;;;;;;;10447076;28;20033;-74
2023/03/26 05:31:32;;;;;;;4.60;1.10;;;;;;;;;;10437161;28;20041;-78
2023/03/26 05:36:36;;;;;;;2.72;0.52;;;;;;;;;;10442600;28;20068;-74
2023/03/26 05:41:39;;;;;;;2.90;0.90;;;;;;;;;;10450358;28;20060;-77
2023/03/26 05:46:43;;;;;;;;;;;;;;;;;;10449203;28;20444;-76
2023/03/26 05:51:57;;;;;;;4.22;1.17;;;;;;;;;;10440412;28;19927;-75
2023/03/26 05:57:00;;;;;;;2.72;0.60;;;;;;;;;;10430802;28;20048;-75
2023/03/26 06:02:03;;;;;;;2.47;1.20;;;;;;;;;;10438511;28;20110;-75
2023/03/26 06:07:08;;;;;;;2.53;0.80;;;;;;;;;;10437928;28;20047;-75
2023/03/26 06:12:12;;;;;;;1.70;0.43;;;;;;;;;;10439982;28;20135;-76
2023/03/26 06:17:18;;;;;;;5.22;1.33;;;;;;;;;;10444844;28;20568;-77
2023/03/26 06:22:23;;;;;;;2.57;0.60;;;;;;;;;;10438369;28;20278;-76
2023/03/26 06:27:26;;;;;;;3.05;0.80;;;;;;;;;;10436112;28;20064;-76
2023/03/26 06:32:30;;;;;;;1.92;0.77;;;;;;;;;;10433122;28;20041;-76
2023/03/26 06:37:34;;;;;;;1.77;0.87;;;;;;;;;;10433144;28;20386;-78
2023/03/26 06:42:36;;;;;;;2.78;0.88;;;;;;;;;;10433683;28;20551;-76
2023/03/26 06:47:59;;;;;;;2.13;0.57;;;;;;;;;;10433442;28;20094;-76
2023/03/26 06:53:04;;;;;;;4.72;0.65;;;;;;;;;;10430555;28;20049;-75
2023/03/26 06:58:07;;;;;;;;;;;;;;;;;;10429948;28;20043;-76
2023/03/26 07:03:10;;;;;;;5.88;1.30;;;;;;;;;;10436044;28;19924;-76
2023/03/26 07:08:15;;;;;;;3.72;0.80;;;;;;;;;;10433403;28;20041;-76
2023/03/26 07:13:17;;;;;;;4.80;0.93;;;;;;;;;;10438191;28;20114;-75
2023/03/26 07:18:21;;;;;;;3.00;0.65;;;;;;;;;;10445301;28;20044;-77
2023/03/26 07:23:26;;;;;;;1.83;0.88;;;;;;;;;;10436683;28;20471;-76
2023/03/26 07:28:34;;;;;;;0.63;0.57;;;;;;;;;;10435248;28;20037;-75
2023/03/26 07:33:38;;;;;;;0.88;0.50;;;;;;;;;;10435977;28;20037;-75
2023/03/26 07:38:48;;;;;;;1.20;0.65;;;;;;;;;;10442459;28;20041;-76
2023/03/26 07:44:02;;;;;;;3.63;0.68;;;;;;;;;;10441016;28;20384;-77
2023/03/26 07:49:06;;;;;;;3.08;1.00;;;;;;;;;;10440697;28;20051;-76
2023/03/26 07:54:11;;;;;;;4.97;1.33;;;;;;;;;;10441009;28;20036;-76
2023/03/26 07:59:20;;;;;;;11.45;2.58;;;;;;;;;;10441580;28;20422;-76
2023/03/26 08:04:39;;;;;;;5.80;1.20;;;;;;;;;;10435335;28;20044;-76
2023/03/26 08:09:52;;;;;;;8.20;1.38;;;;;;;;;;10440949;28;20099;-77
2023/03/26 08:15:09;;;;;;;2.78;1.10;;;;;;;;;;10437251;28;20102;-78
2023/03/26 08:20:29;;;;;;;4.65;1.30;;;;;;;;;;10442229;28;20110;-76
2023/03/26 08:25:36;;;;;;;0.40;0.32;;;;;;;;;;10435236;28;20262;-76
2023/03/26 08:30:39;;;;;;;8.38;2.78;;;;;;;;;;10436117;28;20033;-75
2023/03/26 08:35:42;;;;;;;8.67;3.30;;;;;;;;;;10445604;28;20099;-76
2023/03/26 08:41:15;;;;;;;4.20;1.02;;;;;;;;;;10441424;28;20564;-77
2023/03/26 08:46:33;;;;;;;3.63;1.67;;;;;;;;;;10439735;28;20406;-75
2023/03/26 08:51:51;;;;;;;7.70;1.70;;;;;;;;;;10439883;28;20467;-77
2023/03/26 08:57:00;;;;;;;3.10;1.00;;;;;;;;;;10443273;28;20540;-76
2023/03/26 09:07:56;;;;;;;0.82;0.63;;;;;;;;;;10573831;27;20415;-76
2023/03/26 09:13:22;;;;;;;2.28;0.60;;;;;;;;;;10534282;28;20139;-76
2023/03/26 09:18:56;;;;;;;2.97;1.30;;;;;;;;;;10552243;28;20113;-77
2023/03/26 09:24:23;;;;;;;2.65;1.30;;;;;;;;;;10453410;28;20161;-78
2023/03/26 09:29:43;;;;;;;1.15;0.68;;;;;;;;;;10552043;28;20047;-76
2023/03/26 09:34:58;;;;;;;2.33;1.05;;;;;;;;;;10556466;28;20074;-75
2023/03/26 09:40:08;;;;;;;5.22;1.63;;;;;;;;;;10550714;28;20039;-77
2023/03/26 09:45:31;;;;;;;4.15;1.73;;;;;;;;;;10545269;28;20094;-75
2023/03/26 09:50:40;;;;;;;4.93;1.20;;;;;;;;;;10548518;28;20036;-77
2023/03/26 09:55:49;;;;;;;2.05;1.00;;;;;;;;;;10552894;28;20448;-77
2023/03/26 10:00:59;;;;;;;3.75;1.10;;;;;;;;;;10546506;28;20039;-76
2023/03/26 10:06:32;;;;;;;4.43;2.13;;;;;;;;;;10549804;28;20032;-77
2023/03/26 10:11:46;;;;;;;3.10;1.37;;;;;;;;;;10553698;28;20102;-77
2023/03/26 10:17:00;;;;;;;2.30;1.37;;;;;;;;;;10536164;28;20042;-74
2023/03/26 10:22:09;;;;;;;6.93;1.77;;;;;;;;;;10526774;28;20463;-76
2023/03/26 10:27:21;;;;;;;7.80;2.30;;;;;;;;;;10524887;28;20082;-77
2023/03/26 10:32:33;;;;;;;6.13;1.40;;;;;;;;;;10523653;28;20587;-77
2023/03/26 10:37:43;;;;;;;6.25;1.27;;;;;;;;;;10521147;28;20568;-78
2023/03/26 10:43:18;;;;;;;2.95;1.15;;;;;;;;;;10505483;28;20319;-78
2023/03/26 10:48:27;;;;;;;3.13;1.00;;;;;;;;;;10520371;28;20101;-77
2023/03/26 10:53:34;;;;;;;3.28;1.52;;;;;;;;;;10502236;28;20045;-76
2023/03/26 10:58:39;;;;;;;6.10;2.45;;;;;;;;;;10516364;28;20040;-79
2023/03/26 11:03:55;;;;;;;6.28;2.38;;;;;;;;;;10502454;28;20036;-78
2023/03/26 11:09:03;;;;;;;4.75;2.50;;;;;;;;;;10523410;28;20454;-78
2023/03/26 11:14:10;;;;;;;2.83;1.45;;;;;;;;;;10515795;28;20074;-78
2023/03/26 11:19:28;;;;;;;3.30;1.55;;;;;;;;;;10522497;28;20036;-78
2023/03/26 11:24:50;;;;;;;2.53;1.42;;;;;;;;;;10522170;28;20032;-77
2023/03/26 11:30:09;;;;;;;2.85;1.45;;;;;;;;;;10496204;28;20060;-78
2023/03/26 11:35:18;;;;;;;6.22;2.35;;;;;;;;;;10520799;28;20576;-78
2023/03/26 11:40:44;;;;;;;3.35;1.10;;;;;;;;;;10520872;28;20067;-77
2023/03/26 11:45:50;;;;;;;3.05;1.08;;;;;;;;;;10519827;28;20079;-77
2023/03/26 11:50:57;;;;;;;2.05;0.95;;;;;;;;;;10523810;28;20493;-76
2023/03/26 11:56:02;;;;;;;0.80;0.60;;;;;;;;;;10537172;28;20063;-79
2023/03/26 12:01:13;;;;;;;1.77;0.68;;;;;;;;;;10518260;28;20036;-77
2023/03/26 12:06:27;;;;;;;3.63;0.95;;;;;;;;;;10520449;28;20131;-76
2023/03/26 12:11:33;;;;;;;1.05;0.60;;;;;;;;;;10516380;28;20043;-77
2023/03/26 12:16:37;;;;;;;0.85;0.52;;;;;;;;;;10522096;28;20228;-78
2023/03/26 12:21:48;;;;;;;1.77;1.02;;;;;;;;;;10518377;28;20040;-77
2023/03/26 12:26:56;;;;;;;5.53;3.45;;;;;;;;;;10522731;28;20083;-76
2023/03/26 12:32:03;;;;;;;2.08;0.88;;;;;;;;;;10518063;28;20048;-76
2023/03/26 12:37:32;;;;;;;2.25;0.80;;;;;;;;;;10516001;28;21151;-76
2023/03/26 12:42:39;;;;;;;1.38;0.80;;;;;;;;;;10509422;28;20070;-76
2023/03/26 12:48:03;;;;;;;2.90;0.80;;;;;;;;;;10517923;28;20583;-77
2023/03/26 12:53:16;;;;;;;2.10;0.50;;;;;;;;;;10495599;28;20068;-78
2023/03/26 12:58:32;;;;;;;3.13;0.88;;;;;;;;;;10491581;28;20044;-77
2023/03/26 13:03:43;;;;;;;1.67;1.00;;;;;;;;;;10511326;28;20036;-78
2023/03/26 13:08:57;;;;;;;2.75;0.88;;;;;;;;;;10513269;28;20032;-77
2023/03/26 13:14:16;;;;;;;3.92;1.58;;;;;;;;;;10515947;28;20545;-78
2023/03/26 13:19:21;;;;;;;1.08;0.70;;;;;;;;;;10507336;28;20135;-77
2023/03/26 13:24:34;;;;;;;1.80;1.00;;;;;;;;;;10511004;28;20098;-78
2023/03/26 13:29:42;;;;;;;1.92;0.90;;;;;;;;;;10514460;28;20607;-78
2023/03/26 13:34:53;;;;;;;1.33;0.70;;;;;;;;;;10512256;28;20131;-77
2023/03/26 13:40:05;;;;;;;3.25;0.95;;;;;;;;;;10516081;28;20044;-78
2023/03/26 13:45:14;;;;;;;5.97;2.50;;;;;;;;;;10511423;28;20040;-77
2023/03/26 13:50:21;;;;;;;1.17;1.08;;;;;;;;;;10510846;28;20736;-77
2023/03/26 13:55:29;;;;;;;1.08;0.75;;;;;;;;;;10522903;28;20036;-77
2023/03/26 14:00:46;;;;;;;2.40;1.50;;;;;;;;;;10517628;28;20032;-77
2023/03/26 14:05:52;;;;;;;2.25;1.00;;;;;;;;;;10519232;28;20039;-76
2023/03/26 14:11:01;;;;;;;3.17;1.08;;;;;;;;;;10523278;28;20416;-77
2023/03/26 14:16:17;;;;;;;1.45;0.40;;;;;;;;;;10525476;28;20068;-76
2023/03/26 14:21:25;;;;;;;0.50;0.50;;;;;;;;;;10521883;28;20548;-77
2023/03/26 14:26:47;;;;;;;0.30;0.20;;;;;;;;;;10521604;28;20036;-76
2023/03/26 14:31:57;;;;;;;0.88;0.40;;;;;;;;;;10518444;28;20505;-77
2023/03/26 14:37:22;;;;;;;0.25;0.20;;;;;;;;;;10504217;28;20085;-76
2023/03/26 14:42:37;;;;;;;0.35;0.32;;;;;;;;;;10500482;28;20082;-78
2023/03/26 14:47:45;;;;;;;2.63;0.70;;;;;;;;;;10522404;28;20119;-77
2023/03/26 14:52:50;;;;;;;1.20;0.70;;;;;;;;;;10528702;28;20048;-78
2023/03/26 14:58:02;;;;;;;0.57;0.38;;;;;;;;;;10525513;28;20105;-77
2023/03/26 15:03:20;;;;;;;1.27;0.65;;;;;;;;;;10519841;28;20063;-76
2023/03/26 15:08:41;;;;;;;0.82;0.55;;;;;;;;;;10520460;28;20033;-76
2023/03/26 15:13:59;;;;;;;1.45;0.82;;;;;;;;;;10518680;28;20163;-75
2023/03/26 15:19:17;;;;;;;1.13;0.60;;;;;;;;;;10525490;28;20028;-76
2023/03/26 15:24:42;;;;;;;1.58;0.73;;;;;;;;;;10519209;28;20044;-77
2023/03/26 15:30:04;;;;;;;0.57;0.55;;;;;;;;;;10481268;28;20191;-76
2023/03/26 15:35:33;;;;;;;1.63;0.75;;;;;;;;;;10526709;28;20060;-76
2023/03/26 15:40:42;;;;;;;0.73;0.50;;;;;;;;;;10507212;28;21867;-76
2023/03/26 15:45:52;;;;;;;1.67;1.33;;;;;;;;;;10520799;28;20032;-77
2023/03/26 15:51:14;;;;;;;5.72;2.40;;;;;;;;;;10523196;28;20036;-76
2023/03/26 15:56:24;;;;;;;2.03;0.73;;;;;;;;;;10526944;28;20124;-77
2023/03/26 16:01:37;;;;;;;2.85;0.93;;;;;;;;;;10525362;28;20425;-81
2023/03/26 16:06:47;;;;;;;3.05;1.60;;;;;;;;;;10514089;28;20033;-79
2023/03/26 16:11:52;;;;;;;1.58;0.63;;;;;;;;;;10520043;28;20035;-79
2023/03/26 16:16:56;;;;;;;1.65;0.75;;;;;;;;;;10523017;28;20036;-79
2023/03/26 16:21:59;;;;;;;;;;;;;;;;;;10523712;28;20044;-80
2023/03/26 16:27:25;;;;;;;2.85;0.80;;;;;;;;;;10519685;28;19920;-80
2023/03/26 16:32:28;;;;;;;1.08;0.50;;;;;;;;;;10517806;28;20412;-80
2023/03/26 16:37:36;;;;;;;1.80;0.60;;;;;;;;;;10522912;28;20028;-81
2023/03/26 16:42:46;;;;;;;3.63;1.42;;;;;;;;;;10521476;28;20051;-82
2023/03/26 16:47:54;;;;;;;3.97;1.60;;;;;;;;;;10524118;28;20046;-81
2023/03/26 16:53:02;;;;;;;2.40;1.00;;;;;;;;;;10514564;28;20453;-78
2023/03/26 16:58:11;;;;;;;1.85;1.10;;;;;;;;;;10517570;28;20437;-80
2023/03/26 17:03:26;;;;;;;1.00;0.82;;;;;;;;;;10519884;28;20445;-80
2023/03/26 17:08:33;;;;;;;0.82;0.70;;;;;;;;;;10522504;28;20517;-79
2023/03/26 17:13:44;;;;;;;1.42;0.50;;;;;;;;;;10519437;28;20047;-80
2023/03/26 17:18:52;;;;;;;0.95;0.70;;;;;;;;;;10516684;28;20063;-80
2023/03/26 17:24:10;;;;;;;2.92;0.65;;;;;;;;;;10528335;28;20123;-80
2023/03/26 17:29:23;;;;;;;1.48;0.52;;;;;;;;;;10520961;28;20097;-80
2023/03/26 17:34:44;;;;;;;2.15;1.00;;;;;;;;;;10535768;28;20108;-81
2023/03/26 17:40:14;;;;;;;1.35;0.65;;;;;;;;;;10530440;28;20110;-79
2023/03/26 17:45:19;;;;;;;0.60;0.40;;;;;;;;;;10532104;28;20060;-80
2023/03/26 17:50:25;;;;;;;2.22;0.73;;;;;;;;;;10522558;28;20044;-79
2023/03/26 17:55:30;;;;;;;1.02;0.73;;;;;;;;;;10506670;28;20047;-83
2023/03/26 18:00:40;;;;;;;0.95;0.60;;;;;;;;;;10528329;28;20113;-82
2023/03/26 18:05:42;;;;;;;0.98;0.60;;;;;;;;;;10530229;28;20044;-83
2023/03/26 18:10:59;;;;;;;1.27;0.60;;;;;;;;;;10526568;28;20063;-83
2023/03/26 18:16:12;;;;;;;0.45;0.40;;;;;;;;;;10512738;28;20466;-86
2023/03/26 18:21:19;;;;;;;0.38;0.28;;;;;;;;;;10526953;28;20101;-85
2023/03/26 18:26:23;;;;;;;2.63;0.50;;;;;;;;;;10527101;28;20060;-84
2023/03/26 18:31:28;;;;;;;1.42;0.45;;;;;;;;;;10521636;28;20052;-84
2023/03/26 18:36:33;;;;;;;0.60;0.40;;;;;;;;;;10525021;28;20073;-82
2023/03/26 18:41:40;;;;;;;0.32;0.28;;;;;;;;;;10532786;28;20115;-83
2023/03/26 18:46:46;;;;;;;0.60;0.50;;;;;;;;;;10529709;28;20059;-85
2023/03/26 18:51:59;;;;;;;0.63;0.50;;;;;;;;;;10525926;28;20049;-86
2023/03/26 18:57:10;;;;;;;0.50;0.40;;;;;;;;;;10537773;28;20044;-86
2023/03/26 19:02:19;;;;;;;1.70;0.68;;;;;;;;;;10532962;28;20079;-84
2023/03/26 19:07:25;;;;;;;0.65;0.40;;;;;;;;;;10521750;28;20049;-84
2023/03/26 19:12:29;;;;;;;5.90;1.00;;;;;;;;;;10512299;28;20044;-82
2023/03/26 19:17:39;;;;;;;0.57;0.45;;;;;;;;;;10522582;28;20086;-83
2023/03/26 19:22:43;;;;;;;2.22;1.00;;;;;;;;;;10526626;28;20496;-84
2023/03/26 19:27:47;;;;;;;7.00;2.00;;;;;;;;;;10532033;28;20112;-82
2023/03/26 19:32:54;;;;;;;1.48;0.82;;;;;;;;;;10505658;28;20109;-81
2023/03/26 19:38:23;;;;;;;0.63;0.40;;;;;;;;;;10523277;28;20036;-80
2023/03/26 19:43:26;;;;;;;1.15;0.77;;;;;;;;;;10537354;28;20043;-83
2023/03/26 19:48:34;;;;;;;1.30;0.75;;;;;;;;;;10536242;28;20044;-81
2023/03/26 19:53:59;;;;;;;0.40;0.40;;;;;;;;;;10543404;28;20067;-82
2023/03/26 19:59:03;;;;;;;0.82;0.35;;;;;;;;;;10538955;28;20044;-84
2023/03/26 20:04:10;;;;;;;1.48;0.60;;;;;;;;;;10567176;28;20036;-85
2023/03/26 20:09:13;;;;;;;1.55;0.55;;;;;;;;;;10559528;28;20055;-83
2023/03/26 20:14:20;;;;;;;0.88;0.60;;;;;;;;;;10564544;28;20067;-79
2023/03/26 20:19:24;;;;;;;0.73;0.50;;;;;;;;;;10534728;28;20045;-81
2023/03/26 20:24:30;;;;;;;0.65;0.38;;;;;;;;;;10528560;28;20040;-81
2023/03/26 20:29:35;;;;;;;1.33;0.70;;;;;;;;;;10521629;28;20429;-81
2023/03/26 20:34:40;;;;;;;1.05;0.50;;;;;;;;;;10517253;28;20060;-81
2023/03/26 20:39:45;;;;;;;0.35;0.20;;;;;;;;;;10502391;28;20393;-83
2023/03/26 20:44:48;;;;;;;0.68;0.50;;;;;;;;;;10518455;28;20078;-81
2023/03/26 20:49:54;;;;;;;1.77;0.60;;;;;;;;;;10514114;28;20039;-80
2023/03/26 20:54:59;;;;;;;0.45;0.20;;;;;;;;;;10497661;28;20047;-79
2023/03/26 21:00:06;;;;;;;;;;;;;;;;;;10517823;28;20845;-78
2023/03/26 21:05:13;;;;;;;0.10;0.10;;;;;;;;;;10514665;28;19920;-78
2023/03/26 21:10:18;;;;;;;0.57;0.30;;;;;;;;;;10517992;28;20062;-77
2023/03/26 21:15:21;;;;;;;0.30;0.30;;;;;;;;;;10519163;28;20474;-77
2023/03/26 21:20:31;;;;;;;0.77;0.40;;;;;;;;;;10509627;28;20039;-78
2023/03/26 21:25:38;;;;;;;0.25;0.20;;;;;;;;;;10519423;28;20577;-78
2023/03/26 21:30:41;;;;;;;0.85;0.20;;;;;;;;;;10516653;28;20048;-78
2023/03/26 21:35:51;;;;;;;0.85;0.40;;;;;;;;;;10510526;28;20101;-79
2023/03/26 21:40:56;;;;;;;0.90;0.32;;;;;;;;;;10517513;28;20120;-79
2023/03/26 21:46:02;;;;;;;1.23;0.47;;;;;;;;;;10494754;28;20054;-79
2023/03/26 21:51:13;;;;;;;0.52;0.30;;;;;;;;;;10517998;28;20041;-77
2023/03/26 21:56:21;;;;;;;0.82;0.40;;;;;;;;;;10516807;28;20040;-77
2023/03/26 22:01:29;;;;;;;1.38;0.40;;;;;;;;;;10512958;28;20047;-77
2023/03/26 22:06:37;;;;;;;1.08;0.40;;;;;;;;;;10515302;28;21907;-78
2023/03/26 22:11:40;;;;;;;0.40;0.20;;;;;;;;;;10520432;28;20047;-77
2023/03/26 22:16:42;;;;;;;1.15;0.17;;;;;;;;;;10502302;28;20135;-77
2023/03/26 22:21:47;;;;;;;1.17;0.55;;;;;;;;;;10518807;28;20485;-77
2023/03/26 22:26:49;;;;;;;;;;;;;;;;;;10518851;28;20049;-79
2023/03/26 22:31:53;;;;;;;0.35;0.35;;;;;;;;;;10522414;28;19946;-79
2023/03/26 22:36:57;;;;;;;1.02;0.30;;;;;;;;;;10517667;28;20059;-78
2023/03/26 22:42:00;;;;;;;;;;;;;;;;;;10500069;28;20339;-77
2023/03/26 22:47:03;;;;;;;0.40;0.30;;;;;;;;;;10520741;28;19943;-77
2023/03/26 22:52:07;;;;;;;1.35;0.40;;;;;;;;;;10517780;28;20052;-76
2023/03/26 22:57:10;;;;;;;0.25;0.25;;;;;;;;;;10516775;28;20063;-76
2023/03/26 23:02:15;;;;;;;0.82;0.28;;;;;;;;;;10522884;28;20048;-79
2023/03/26 23:07:19;;;;;;;0.73;0.20;;;;;;;;;;10503249;28;20068;-77
2023/03/26 23:12:22;;;;;;;0.35;0.32;;;;;;;;;;10518148;28;20501;-78
2023/03/26 23:17:25;;;;;;;0.17;0.17;;;;;;;;;;10520657;28;20267;-78
2023/03/26 23:22:30;;;;;;;1.60;0.10;;;;;;;;;;10501611;28;20044;-78
2023/03/26 23:27:34;;;;;;;0.90;0.32;;;;;;;;;;10511969;28;20878;-77
2023/03/26 23:32:37;;;;;;;0.20;0.20;;;;;;;;;;10515341;28;20045;-77
2023/03/26 23:37:41;;;;;;;1.88;0.30;;;;;;;;;;10516773;28;20382;-78
2023/03/26 23:42:54;;;;;;;0.47;0.22;;;;;;;;;;10498114;28;20471;-77
2023/03/26 23:47:57;;;;;;;0.32;0.20;;;;;;;;;;10497550;28;20044;-77
2023/03/26 23:53:01;;;;;;;0.30;0.30;;;;;;;;;;10515494;28;20075;-78
2023/03/26 23:58:05;;;;;;;0.25;0.10;;;;;;;;;;10515103;28;20389;-79
